createdAt,value
2019-02-09T00:00:13.987Z,73.50
2019-02-09T00:03:19.092Z,73.70
2019-02-09T00:06:24.258Z,73.80
2019-02-09T00:09:29.265Z,73.80
2019-02-09T00:12:34.529Z,73.80
2019-02-09T00:15:39.937Z,73.70
2019-02-09T00:18:45.266Z,73.90
2019-02-09T00:21:50.215Z,73.80
2019-02-09T00:24:55.156Z,73.70
2019-02-09T00:28:00.294Z,73.60
2019-02-09T00:31:05.709Z,74.00
2019-02-09T00:34:10.762Z,74.10
2019-02-09T00:37:15.603Z,74.20
2019-02-09T00:40:21.054Z,74.30
2019-02-09T00:43:26.360Z,74.30
2019-02-09T00:46:31.374Z,74.20
2019-02-09T00:49:36.186Z,74.10
2019-02-09T00:52:41.152Z,74.00
2019-02-09T00:55:46.260Z,74.70
2019-02-09T00:58:51.274Z,74.50
2019-02-09T01:01:56.147Z,74.30
2019-02-09T01:05:01.067Z,74.30
2019-02-09T01:08:06.185Z,74.50
2019-02-09T01:11:11.218Z,74.60
2019-02-09T01:14:16.211Z,74.50
2019-02-09T01:17:21.194Z,74.50
2019-02-09T01:20:26.465Z,74.60
2019-02-09T01:23:31.577Z,74.60
2019-02-09T01:26:36.550Z,74.30
2019-02-09T01:29:41.665Z,74.30
2019-02-09T01:32:46.634Z,74.40
2019-02-09T01:35:51.646Z,74.20
2019-02-09T01:38:56.623Z,74.30
2019-02-09T01:42:01.602Z,74.30
2019-02-09T01:45:08.221Z,74.30
2019-02-09T01:48:16.083Z,74.70
2019-02-09T01:51:21.106Z,74.70
2019-02-09T01:54:26.198Z,74.60
2019-02-09T01:57:31.420Z,74.60
2019-02-09T02:00:37.373Z,74.60
2019-02-09T02:03:42.516Z,74.70
2019-02-09T02:06:47.486Z,75.60
2019-02-09T02:09:52.612Z,74.80
2019-02-09T02:12:57.579Z,74.60
2019-02-09T02:16:03.211Z,74.90
2019-02-09T02:19:08.665Z,74.90
2019-02-09T02:22:13.594Z,75.00
2019-02-09T02:25:19.072Z,74.90
2019-02-09T02:28:24.121Z,74.80
2019-02-09T02:31:29.125Z,74.70
2019-02-09T02:34:34.057Z,74.80
2019-02-09T02:37:39.106Z,74.80
2019-02-09T02:40:44.206Z,74.70
2019-02-09T02:43:49.199Z,75.00
2019-02-09T02:46:54.270Z,75.10
2019-02-09T02:50:18.630Z,75.00
2019-02-09T02:53:23.561Z,74.70
2019-02-09T02:56:28.537Z,75.00
2019-02-09T02:59:33.823Z,75.00
2019-02-09T03:02:38.819Z,75.00
2019-02-09T03:05:43.810Z,75.00
2019-02-09T03:08:55.302Z,75.00
2019-02-09T03:12:00.319Z,74.90
2019-02-09T03:15:07.277Z,75.20
2019-02-09T03:18:12.532Z,75.30
2019-02-09T03:21:17.524Z,75.30
2019-02-09T03:24:22.540Z,75.40
2019-02-09T03:27:27.560Z,75.50
2019-02-09T03:30:45.697Z,75.80
2019-02-09T03:33:39.065Z,75.60
2019-02-09T03:36:43.999Z,76.20
2019-02-09T03:39:49.133Z,76.70
2019-02-09T03:42:54.180Z,76.70
2019-02-09T03:45:59.493Z,76.50
2019-02-09T03:49:04.888Z,76.40
2019-02-09T03:52:09.907Z,76.00
2019-02-09T03:55:15.169Z,76.20
2019-02-09T03:58:20.125Z,76.30
2019-02-09T04:01:25.224Z,76.30
2019-02-09T04:04:30.246Z,76.70
2019-02-09T04:07:35.196Z,76.80
2019-02-09T04:10:40.381Z,76.70
2019-02-09T04:13:45.299Z,77.70
2019-02-09T04:16:50.438Z,77.10
2019-02-09T04:19:55.374Z,77.10
2019-02-09T04:23:00.251Z,76.90
2019-02-09T04:26:05.359Z,76.60
2019-02-09T04:29:10.614Z,76.20
2019-02-09T04:32:15.545Z,75.90
2019-02-09T04:35:20.696Z,75.90
2019-02-09T04:38:25.633Z,75.90
2019-02-09T04:41:30.741Z,75.90
2019-02-09T04:44:35.682Z,76.00
2019-02-09T04:47:40.537Z,76.20
2019-02-09T04:50:45.473Z,76.70
2019-02-09T04:53:50.608Z,76.70
2019-02-09T04:56:55.547Z,77.00
2019-02-09T05:00:00.535Z,76.90
2019-02-09T05:03:05.936Z,76.60
2019-02-09T05:06:10.874Z,76.40
2019-02-09T05:09:15.804Z,76.30
2019-02-09T05:12:20.683Z,76.40
2019-02-09T05:15:25.988Z,76.50
2019-02-09T05:18:30.979Z,76.10
2019-02-09T05:21:35.965Z,76.40
2019-02-09T05:24:41.108Z,76.90
2019-02-09T05:27:46.249Z,76.10
2019-02-09T05:30:51.252Z,76.10
2019-02-09T05:33:56.760Z,76.30
2019-02-09T05:37:01.872Z,76.50
2019-02-09T05:40:07.604Z,76.40
2019-02-09T05:43:12.790Z,77.40
2019-02-09T05:46:20.780Z,76.80
2019-02-09T05:49:25.766Z,76.90
2019-02-09T05:52:30.810Z,78.00
2019-02-09T05:55:35.819Z,77.20
2019-02-09T05:58:40.918Z,77.00
2019-02-09T06:01:46.075Z,76.90
2019-02-09T06:04:51.032Z,77.00
2019-02-09T06:07:56.297Z,77.00
2019-02-09T06:11:01.493Z,76.50
2019-02-09T06:14:06.828Z,76.50
2019-02-09T06:17:11.799Z,76.50
2019-02-09T06:20:19.623Z,76.50
2019-02-09T06:23:24.408Z,76.70
2019-02-09T06:26:29.464Z,76.80
2019-02-09T06:29:34.575Z,77.00
2019-02-09T06:32:39.679Z,77.30
2019-02-09T06:35:44.893Z,78.30
2019-02-09T06:38:49.938Z,77.60
2019-02-09T06:41:58.135Z,77.10
2019-02-09T06:45:03.354Z,77.30
2019-02-09T06:48:36.281Z,77.20
2019-02-09T06:51:41.493Z,77.10
2019-02-09T06:54:46.480Z,77.30
2019-02-09T06:57:51.558Z,77.80
2019-02-09T07:00:56.556Z,78.10
2019-02-09T07:04:01.452Z,77.70
2019-02-09T07:07:06.900Z,77.50
2019-02-09T07:10:13.001Z,77.60
2019-02-09T07:13:18.070Z,77.50
2019-02-09T07:16:23.349Z,77.30
2019-02-09T07:19:28.436Z,76.60
2019-02-09T07:22:33.617Z,76.10
2019-02-09T07:25:38.512Z,75.60
2019-02-09T07:28:43.412Z,75.20
2019-02-09T07:31:48.383Z,74.60
2019-02-09T07:34:53.283Z,74.30
2019-02-09T07:37:58.632Z,73.80
2019-02-09T07:41:03.595Z,73.50
2019-02-09T07:44:08.556Z,72.90
2019-02-09T07:47:13.539Z,72.90
2019-02-09T07:50:19.148Z,72.60
2019-02-09T07:53:24.151Z,72.20
2019-02-09T07:56:29.199Z,71.70
2019-02-09T07:59:34.286Z,71.30
2019-02-09T08:02:39.274Z,71.10
2019-02-09T08:05:44.392Z,70.80
2019-02-09T08:08:49.374Z,71.00
2019-02-09T08:11:54.410Z,70.90
2019-02-09T08:14:59.460Z,70.60
2019-02-09T08:18:04.760Z,71.60
2019-02-09T08:21:09.916Z,71.50
2019-02-09T08:24:14.826Z,72.20
2019-02-09T08:27:23.604Z,72.50
2019-02-09T08:30:29.330Z,72.30
2019-02-09T08:33:34.300Z,71.50
2019-02-09T08:36:39.328Z,71.40
2019-02-09T08:39:44.538Z,71.60
2019-02-09T08:42:49.464Z,71.60
2019-02-09T08:45:54.357Z,71.80
2019-02-09T08:48:59.539Z,71.50
2019-02-09T08:52:04.798Z,70.10
2019-02-09T08:55:09.954Z,68.50
2019-02-09T08:58:15.223Z,65.10
2019-02-09T09:01:20.118Z,63.80
2019-02-09T09:04:25.269Z,61.40
2019-02-09T09:07:30.401Z,60.80
2019-02-09T09:10:35.460Z,59.90
2019-02-09T09:13:40.413Z,59.80
2019-02-09T09:16:45.368Z,59.40
2019-02-09T09:19:50.501Z,59.00
2019-02-09T09:22:55.640Z,58.90
2019-02-09T09:26:00.815Z,58.20
2019-02-09T09:29:06.295Z,58.10
2019-02-09T09:32:11.314Z,57.70
2019-02-09T09:35:16.527Z,55.10
2019-02-09T09:38:21.628Z,49.90
2019-02-09T09:41:29.561Z,46.20
2019-02-09T09:44:34.481Z,45.60
2019-02-09T09:47:39.413Z,46.10
2019-02-09T09:50:44.334Z,46.40
2019-02-09T09:53:49.283Z,46.90
2019-02-09T09:56:54.289Z,45.70
2019-02-09T09:59:59.634Z,41.70
2019-02-09T10:03:05.110Z,37.50
2019-02-09T10:06:10.050Z,37.30
2019-02-09T10:09:14.982Z,37.90
2019-02-09T10:12:19.913Z,34.40
2019-02-09T10:15:25.498Z,29.20
2019-02-09T10:18:30.601Z,25.50
2019-02-09T10:21:35.651Z,22.40
2019-02-09T10:24:40.570Z,20.50
2019-02-09T10:27:46.148Z,19.00
2019-02-09T10:30:51.265Z,17.40
2019-02-09T10:33:56.236Z,17.20
2019-02-09T10:37:01.336Z,18.00
2019-02-09T10:40:08.307Z,18.10
2019-02-09T10:43:13.421Z,17.10
2019-02-09T10:46:18.377Z,16.50
2019-02-09T10:49:23.576Z,15.90
2019-02-09T10:52:28.433Z,15.30
2019-02-09T10:55:34.022Z,14.90
2019-02-09T10:58:39.078Z,14.50
2019-02-09T11:01:44.489Z,15.10
2019-02-09T11:04:49.680Z,15.20
2019-02-09T11:07:54.651Z,15.80
2019-02-09T11:10:59.772Z,16.10
2019-02-09T11:14:04.884Z,17.00
2019-02-09T11:17:09.794Z,18.00
2019-02-09T11:20:18.026Z,19.60
2019-02-09T11:23:23.192Z,20.10
2019-02-09T11:26:28.145Z,19.40
2019-02-09T11:29:33.289Z,18.70
2019-02-09T11:32:38.117Z,17.80
2019-02-09T11:35:43.066Z,16.70
2019-02-09T11:38:48.992Z,16.20
2019-02-09T11:41:54.053Z,15.80
2019-02-09T11:44:59.162Z,15.00
2019-02-09T11:48:04.266Z,14.20
2019-02-09T11:51:09.170Z,13.80
2019-02-09T11:54:14.176Z,13.00
2019-02-09T11:57:19.332Z,13.00
2019-02-09T12:00:29.313Z,12.70
2019-02-09T12:03:34.537Z,12.30
2019-02-09T12:06:39.613Z,11.90
2019-02-09T12:09:44.555Z,11.60
2019-02-09T12:12:49.557Z,11.50
2019-02-09T12:15:54.665Z,11.50
2019-02-09T12:18:59.545Z,12.00
2019-02-09T12:22:04.704Z,12.30
2019-02-09T12:25:12.593Z,12.80
2019-02-09T12:28:17.388Z,13.10
2019-02-09T12:31:22.604Z,13.40
2019-02-09T12:34:28.824Z,13.50
2019-02-09T12:37:33.781Z,13.70
2019-02-09T12:40:38.976Z,13.20
2019-02-09T12:43:44.048Z,13.30
2019-02-09T12:46:49.092Z,14.40
2019-02-09T12:49:54.365Z,15.60
2019-02-09T12:52:59.209Z,15.40
2019-02-09T12:56:04.514Z,15.10
2019-02-09T12:59:14.831Z,14.60
2019-02-09T13:02:16.758Z,14.30
2019-02-09T13:05:21.593Z,14.10
2019-02-09T13:08:26.328Z,13.40
2019-02-09T13:11:31.064Z,13.60
2019-02-09T13:14:35.889Z,13.40
2019-02-09T13:17:40.686Z,13.40
2019-02-09T13:20:46.216Z,13.70
2019-02-09T13:23:51.460Z,13.10
2019-02-09T13:26:56.559Z,12.70
2019-02-09T13:30:01.761Z,12.60
2019-02-09T13:33:07.059Z,12.40
2019-02-09T13:36:11.963Z,12.40
2019-02-09T13:39:17.032Z,12.20
2019-02-09T13:42:22.143Z,12.50
2019-02-09T13:45:35.805Z,12.60
2019-02-09T13:48:40.838Z,13.80
2019-02-09T13:51:45.869Z,14.00
2019-02-09T13:54:50.908Z,13.80
2019-02-09T13:57:55.907Z,13.70
2019-02-09T14:01:01.028Z,14.00
2019-02-09T14:04:06.109Z,13.80
2019-02-09T14:07:11.009Z,13.90
2019-02-09T14:10:20.510Z,14.00
2019-02-09T14:13:25.397Z,14.70
2019-02-09T14:16:37.642Z,15.60
2019-02-09T14:19:37.247Z,16.50
2019-02-09T14:22:42.803Z,18.70
2019-02-09T14:25:48.021Z,19.80
2019-02-09T14:28:52.919Z,21.20
2019-02-09T14:31:57.821Z,23.10
2019-02-09T14:35:03.911Z,23.90
2019-02-09T14:38:09.292Z,25.30
2019-02-09T14:41:14.544Z,26.60
2019-02-09T14:44:19.508Z,27.30
2019-02-09T14:47:24.654Z,27.80
2019-02-09T14:50:30.091Z,29.40
2019-02-09T14:53:35.375Z,29.50
2019-02-09T14:56:40.206Z,30.10
2019-02-09T14:59:45.241Z,31.20
2019-02-09T15:02:53.875Z,31.70
2019-02-09T15:05:56.976Z,33.00
2019-02-09T15:09:02.377Z,34.00
2019-02-09T15:12:07.486Z,35.10
2019-02-09T15:15:24.602Z,36.50
2019-02-09T15:18:29.626Z,37.60
2019-02-09T15:21:35.378Z,38.70
2019-02-09T15:24:40.291Z,39.70
2019-02-09T15:27:45.636Z,40.80
2019-02-09T15:30:50.574Z,41.80
2019-02-09T15:33:55.727Z,42.50
2019-02-09T15:37:01.799Z,44.00
2019-02-09T15:40:09.264Z,45.00
2019-02-09T15:43:14.677Z,45.80
2019-02-09T15:46:19.842Z,46.50
2019-02-09T15:49:24.824Z,46.90
2019-02-09T15:52:30.076Z,47.30
2019-02-09T15:55:35.181Z,47.70
2019-02-09T15:58:40.250Z,48.20
2019-02-09T16:01:45.490Z,48.10
2019-02-09T16:04:50.372Z,48.40
2019-02-09T16:07:55.528Z,48.70
2019-02-09T16:11:00.553Z,49.50
2019-02-09T16:14:05.954Z,49.50
2019-02-09T16:17:11.014Z,49.90
2019-02-09T16:20:18.589Z,50.00
2019-02-09T16:23:23.736Z,50.20
2019-02-09T16:26:28.823Z,50.40
2019-02-09T16:29:33.878Z,50.60
2019-02-09T16:32:38.976Z,51.00
2019-02-09T16:35:44.355Z,51.10
2019-02-09T16:38:49.428Z,51.40
2019-02-09T16:41:54.521Z,51.60
2019-02-09T16:44:59.512Z,51.80
2019-02-09T16:48:05.273Z,52.00
2019-02-09T16:51:10.321Z,52.00
2019-02-09T16:54:15.261Z,52.20
2019-02-09T16:57:20.304Z,52.60
2019-02-09T17:00:37.437Z,53.80
2019-02-09T17:03:42.363Z,53.80
2019-02-09T17:06:47.287Z,53.90
2019-02-09T17:09:52.209Z,54.20
2019-02-09T17:12:57.163Z,54.50
2019-02-09T17:16:02.105Z,54.60
2019-02-09T17:19:07.202Z,54.90
2019-02-09T17:22:12.256Z,55.30
2019-02-09T17:25:17.575Z,55.70
2019-02-09T17:28:22.685Z,55.90
2019-02-09T17:31:27.787Z,56.10
2019-02-09T17:34:40.624Z,56.20
2019-02-09T17:37:39.609Z,56.30
2019-02-09T17:40:46.676Z,56.50
2019-02-09T17:43:52.115Z,56.70
2019-02-09T17:46:57.376Z,56.90
2019-02-09T17:50:02.435Z,57.30
2019-02-09T17:53:07.421Z,57.30
2019-02-09T17:56:12.513Z,57.60
2019-02-09T17:59:17.658Z,57.80
2019-02-09T18:02:23.061Z,58.10
2019-02-09T18:05:28.059Z,58.30
2019-02-09T18:08:33.137Z,58.50
2019-02-09T18:11:38.645Z,59.00
2019-02-09T18:14:43.573Z,59.10
2019-02-09T18:17:48.965Z,59.50
2019-02-09T18:20:54.241Z,59.40
2019-02-09T18:23:59.123Z,59.70
2019-02-09T18:27:03.985Z,60.80
2019-02-09T18:30:12.146Z,61.90
2019-02-09T18:33:17.363Z,62.60
2019-02-09T18:36:22.856Z,63.10
2019-02-09T18:39:27.844Z,63.40
2019-02-09T18:42:32.926Z,64.00
2019-02-09T18:45:37.973Z,64.20
2019-02-09T18:48:42.969Z,64.40
2019-02-09T18:51:48.072Z,64.50
2019-02-09T18:54:53.058Z,64.40
2019-02-09T18:57:58.060Z,64.40
2019-02-09T19:01:03.693Z,64.40
2019-02-09T19:04:08.882Z,64.30
2019-02-09T19:07:13.955Z,64.40
2019-02-09T19:10:21.442Z,64.60
2019-02-09T19:13:26.566Z,64.60
2019-02-09T19:16:31.673Z,64.70
2019-02-09T19:19:36.763Z,64.70
2019-02-09T19:22:41.703Z,64.60
2019-02-09T19:25:47.254Z,64.60
2019-02-09T19:28:52.179Z,65.40
2019-02-09T19:31:57.229Z,65.30
2019-02-09T19:35:02.556Z,65.30
2019-02-09T19:38:07.605Z,65.30
2019-02-09T19:41:12.763Z,65.50
2019-02-09T19:44:17.803Z,66.20
2019-02-09T19:47:22.709Z,66.90
2019-02-09T19:50:27.696Z,65.80
2019-02-09T19:53:32.819Z,65.90
2019-02-09T19:56:37.949Z,66.00
2019-02-09T19:59:42.839Z,66.10
2019-02-09T20:02:47.839Z,66.00
2019-02-09T20:05:53.133Z,66.30
2019-02-09T20:08:58.105Z,66.70
2019-02-09T20:12:02.976Z,66.70
2019-02-09T20:15:09.155Z,67.00
2019-02-09T20:18:14.311Z,66.80
2019-02-09T20:21:19.767Z,66.50
2019-02-09T20:24:25.028Z,67.10
2019-02-09T20:27:30.041Z,67.50
2019-02-09T20:30:36.105Z,67.90
2019-02-09T20:33:41.248Z,68.70
2019-02-09T20:36:46.394Z,68.30
2019-02-09T20:39:51.456Z,68.40
2019-02-09T20:43:01.728Z,68.50
2019-02-09T20:46:03.567Z,68.40
2019-02-09T20:49:08.555Z,68.70
2019-02-09T20:52:13.634Z,68.70
2019-02-09T20:55:19.795Z,68.80
2019-02-09T20:58:25.064Z,68.90
2019-02-09T21:01:30.021Z,69.00
2019-02-09T21:04:35.144Z,69.40
2019-02-09T21:07:40.264Z,69.70
2019-02-09T21:10:45.308Z,70.20
2019-02-09T21:13:50.670Z,70.00
2019-02-09T21:16:55.640Z,70.00
2019-02-09T21:20:00.949Z,69.90
2019-02-09T21:23:06.742Z,69.70
2019-02-09T21:26:12.003Z,70.00
2019-02-09T21:29:17.501Z,70.30
2019-02-09T21:32:22.516Z,70.50
2019-02-09T21:35:30.459Z,70.40
2019-02-09T21:38:36.008Z,70.20
2019-02-09T21:41:40.985Z,70.10
2019-02-09T21:44:45.954Z,70.00
2019-02-09T21:47:51.421Z,69.90
2019-02-09T21:50:56.344Z,69.60
2019-02-09T21:54:01.347Z,69.80
2019-02-09T21:57:06.409Z,70.50
2019-02-09T22:00:24.413Z,71.50
2019-02-09T22:03:29.756Z,70.70
2019-02-09T22:06:34.697Z,71.50
2019-02-09T22:09:39.800Z,71.50
2019-02-09T22:12:44.883Z,71.50
2019-02-09T22:15:49.890Z,71.70
2019-02-09T22:18:55.572Z,71.70
2019-02-09T22:22:00.965Z,71.60
2019-02-09T22:25:07.501Z,71.70
2019-02-09T22:28:12.697Z,71.70
2019-02-09T22:31:21.850Z,71.90
2019-02-09T22:34:24.404Z,72.00
2019-02-09T22:37:29.412Z,71.80
2019-02-09T22:40:35.446Z,71.90
2019-02-09T22:43:40.685Z,71.90
2019-02-09T22:46:45.645Z,71.90
2019-02-09T22:49:50.956Z,71.80
2019-02-09T22:52:56.028Z,71.70
2019-02-09T22:56:00.922Z,71.80
2019-02-09T22:59:06.393Z,71.80
2019-02-09T23:02:11.741Z,71.80
2019-02-09T23:05:42.068Z,71.90
2019-02-09T23:08:47.942Z,71.60
2019-02-09T23:11:53.372Z,71.40
2019-02-09T23:14:58.295Z,71.50
2019-02-09T23:18:03.635Z,72.10
2019-02-09T23:21:08.992Z,72.10
2019-02-09T23:24:13.972Z,72.00
2019-02-09T23:27:18.998Z,72.60
2019-02-09T23:30:23.971Z,72.90
2019-02-09T23:33:28.921Z,72.80
2019-02-09T23:36:34.109Z,72.90
2019-02-09T23:39:39.052Z,72.80
2019-02-09T23:42:44.203Z,72.60
2019-02-09T23:45:49.332Z,72.70
2019-02-09T23:48:54.624Z,72.90
2019-02-09T23:51:59.776Z,73.60
2019-02-09T23:55:04.777Z,74.20
2019-02-09T23:58:09.820Z,74.40
